Flight Track Log - Related Links

Times and Time Zones

All times are in EDT time to prevent confusion due to time zone crossing. See the N39PH flight status page for this flight to view local times or setup timezone preferences in your user account.

Time Position Orientation Groundspeed Altitude Reporting Facility
EDT Latitude Longitude Course Direction KTS MPH feet Rate Location/Type
Fri 07:09:45 PM 39.5833 -104.9000 207° Southwest 199 229 8,400  Level Denver TRACON
Fri 07:10:51 PM 39.5333 -104.9333 207° Southwest 182 209 10,700 1,857 Climbing Denver TRACON
Fri 07:11:09 PM 39.5264 -104.9361 197° South 185 213 11,000 225 Climbing Denver Center
Fri 07:12:11 PM 39.4642 -104.9556 194° South 218 251 11,000  Level Denver Center
Fri 07:13:13 PM 39.4019 -104.9747 193° South 229 264 11,000 1,065 Level Denver Center
Fri 07:14:15 PM 39.3481 -104.9928 195° South 184 212 13,200 2,081 Climbing Denver Center
Fri 07:15:17 PM 39.2972 -105.0050 191° South 172 198 15,300 1,790 Climbing Denver Center
Fri 07:16:19 PM 39.2472 -105.0253 197° South 191 220 16,900 1,113 Climbing Denver Center
Fri 07:17:21 PM 39.1806 -105.0489 195° South 236 272 17,600 1,210 Climbing Denver Center
Fri 07:18:23 PM 39.1217 -105.0661 193° South 211 243 19,400 1,645 Climbing Denver Center
Fri 07:19:25 PM 39.0717 -105.0942 204° Southwest 197 227 21,000 1,355 Climbing Denver Center
Fri 07:20:27 PM 39.0214 -105.1247 205° Southwest 198 228 22,200 484 Climbing Denver Center
Fri 07:21:29 PM 38.9739 -105.1836 224° Southwest 237 273 22,000 -97 Descending Denver Center
Fri 07:22:31 PM 38.9292 -105.2547 231° Southwest 253 291 22,000  Level Denver Center
Fri 07:23:33 PM 38.8739 -105.3344 228° Southwest 260 299 22,000  Level Denver Center
Fri 07:24:35 PM 38.8283 -105.3994 228° Southwest 257 296 22,000  Level Denver Center
Fri 07:25:37 PM 38.7836 -105.4656 229° Southwest 255 293 22,000  Level Denver Center
Fri 07:26:39 PM 38.7319 -105.5400 228° Southwest 252 290 22,000  Level Denver Center
Fri 07:27:41 PM 38.6861 -105.6056 228° Southwest 255 293 22,000  Level Denver Center
Fri 07:28:43 PM 38.6336 -105.6808 228° Southwest 255 293 22,000  Level Denver Center
Fri 07:29:45 PM 38.5894 -105.7461 229° Southwest 254 292 22,000  Level Denver Center
Fri 07:30:47 PM 38.5378 -105.8206 228° Southwest 252 290 22,000  Level Denver Center
Fri 07:31:49 PM 38.4950 -105.8844 229° Southwest 248 285 22,000  Level Denver Center
Fri 07:32:51 PM 38.4419 -105.9569 227° Southwest 249 287 22,000  Level Denver Center
Fri 07:33:53 PM 38.3986 -106.0222 230° Southwest 252 290 22,000  Level Denver Center
Fri 07:34:55 PM 38.3458 -106.0944 227° Southwest 249 287 22,000  Level Denver Center
Fri 07:35:57 PM 38.3017 -106.1589 229° Southwest 250 288 22,000  Level Denver Center
Fri 07:36:59 PM 38.2542 -106.2261 228° Southwest 260 299 22,000  Level Denver Center
Fri 07:38:01 PM 38.2072 -106.2942 229° Southwest 258 297 22,000  Level Denver Center
Fri 07:39:03 PM 38.1506 -106.3733 228° Southwest 252 290 22,000  Level Denver Center
Fri 07:40:05 PM 38.1019 -106.4411 228° Southwest 256 295 22,000  Level Denver Center
Fri 07:41:07 PM 38.0536 -106.5061 227° Southwest 257 296 22,000  Level Denver Center
Fri 07:42:09 PM 38.0000 -106.5831 229° Southwest 259 298 22,000  Level Denver Center
Fri 07:43:11 PM 37.9531 -106.6483 228° Southwest 261 300 22,000  Level Denver Center
Fri 07:44:13 PM 37.8981 -106.7222 227° Southwest 258 297 22,000  Level Denver Center
Fri 07:45:15 PM 37.8522 -106.7878 228° Southwest 259 298 22,000  Level Denver Center
Fri 07:46:17 PM 37.7958 -106.8631 227° Southwest 262 302 22,000  Level Denver Center
Fri 07:47:19 PM 37.7478 -106.9292 227° Southwest 265 305 22,000  Level Denver Center
Fri 07:48:21 PM 37.7011 -106.9961 229° Southwest 265 305 22,000 -339 Level Denver Center
Fri 07:49:23 PM 37.6478 -107.0725 229° Southwest 261 300 21,300 -968 Descending Denver Center
Fri 07:50:25 PM 37.5975 -107.1389 226° Southwest 267 307 20,000 -1,403 Descending Denver Center
Fri 07:51:27 PM 37.5392 -107.2200 228° Southwest 276 318 18,400 -1,306 Descending Denver Center
Fri 07:52:29 PM 37.4892 -107.2864 227° Southwest 275 316 17,300 -1,306 Descending Denver Center
Fri 07:53:31 PM 37.4322 -107.3653 228° Southwest 272 313 15,700 -1,403 Descending Denver Center
Fri 07:54:33 PM 37.3831 -107.4322 227° Southwest 273 314 14,400 -1,403 Descending Denver Center
Fri 07:55:35 PM 37.3294 -107.5092 229° Southwest 266 306 12,800 -1,597 Descending Denver Center
Fri 07:56:37 PM 37.2858 -107.5694 228° Southwest 254 292 11,100 -1,463 Descending Denver Center
Fri 07:57:38 PM 37.2422 -107.6383 232° Southwest 235 270 9,800 -1,122 Descending Denver Center
Fri 07:58:40 PM 37.2122 -107.6944 236° Southwest 215 247 8,800 -762 Descending Denver Center
Fri 07:59:44 PM 37.1858 -107.7408 234° Southwest 209 241 8,200 -333 Descending Denver Center
Fri 08:00:46 PM 37.1497 -107.7914 228° Southwest 161 185 8,100 -581 Descending Denver Center
Fri 08:01:48 PM 37.1303 -107.7706 139° Southeast 160 184 7,000 -1,065 Descending Denver Center

Login

Don't have an account? Register now (free) for customized features, flight alerts, and more!